sensor_id;sensor_type;location;lat;lon;timestamp;temperature;humidity
28725;DHT22;43472;48.980;9.646;2022-07-24T00:05:00;19.70;99.90
28725;DHT22;43472;48.980;9.646;2022-07-24T00:10:04;20.00;99.90
28725;DHT22;43472;48.980;9.646;2022-07-24T00:15:06;20.20;99.90
28725;DHT22;43472;48.980;9.646;2022-07-24T00:20:09;20.10;99.90
28725;DHT22;43472;48.980;9.646;2022-07-24T00:25:11;19.50;99.90
28725;DHT22;43472;48.980;9.646;2022-07-24T00:30:14;19.50;99.90
28725;DHT22;43472;48.980;9.646;2022-07-24T00:35:16;19.50;99.90
28725;DHT22;43472;48.980;9.646;2022-07-24T00:40:19;19.70;99.90
28725;DHT22;43472;48.980;9.646;2022-07-24T00:45:21;19.60;99.90
28725;DHT22;43472;48.980;9.646;2022-07-24T00:50:26;19.40;99.90
28725;DHT22;43472;48.980;9.646;2022-07-24T00:55:28;19.40;99.90
28725;DHT22;43472;48.980;9.646;2022-07-24T01:00:30;19.40;99.90
28725;DHT22;43472;48.980;9.646;2022-07-24T01:05:32;19.10;99.90
28725;DHT22;43472;48.980;9.646;2022-07-24T01:10:33;18.90;99.90
28725;DHT22;43472;48.980;9.646;2022-07-24T01:15:35;19.00;99.90
28725;DHT22;43472;48.980;9.646;2022-07-24T01:20:38;19.40;99.90
28725;DHT22;43472;48.980;9.646;2022-07-24T01:25:41;18.90;99.90
28725;DHT22;43472;48.980;9.646;2022-07-24T01:30:43;19.10;99.90
28725;DHT22;43472;48.980;9.646;2022-07-24T01:35:45;19.20;99.90
28725;DHT22;43472;48.980;9.646;2022-07-24T01:40:47;19.20;99.90
28725;DHT22;43472;48.980;9.646;2022-07-24T01:56:39;18.80;99.90
28725;DHT22;43472;48.980;9.646;2022-07-24T02:06:46;18.90;99.90
28725;DHT22;43472;48.980;9.646;2022-07-24T02:16:50;18.60;99.90
28725;DHT22;43472;48.980;9.646;2022-07-24T02:21:52;18.80;99.90
28725;DHT22;43472;48.980;9.646;2022-07-24T02:26:54;18.80;99.90
28725;DHT22;43472;48.980;9.646;2022-07-24T02:32:03;18.90;99.90
28725;DHT22;43472;48.980;9.646;2022-07-24T02:42:11;18.40;99.90
28725;DHT22;43472;48.980;9.646;2022-07-24T02:47:13;18.40;99.90
28725;DHT22;43472;48.980;9.646;2022-07-24T02:52:15;18.60;99.90
28725;DHT22;43472;48.980;9.646;2022-07-24T02:57:17;18.40;99.90
28725;DHT22;43472;48.980;9.646;2022-07-24T03:02:18;17.90;99.90
28725;DHT22;43472;48.980;9.646;2022-07-24T03:07:21;18.10;99.90
28725;DHT22;43472;48.980;9.646;2022-07-24T03:12:23;17.90;99.90
28725;DHT22;43472;48.980;9.646;2022-07-24T03:17:24;18.90;99.90
28725;DHT22;43472;48.980;9.646;2022-07-24T03:22:26;18.10;99.90
28725;DHT22;43472;48.980;9.646;2022-07-24T03:27:29;18.20;99.90
28725;DHT22;43472;48.980;9.646;2022-07-24T03:32:31;17.90;99.90
28725;DHT22;43472;48.980;9.646;2022-07-24T03:47:37;17.80;99.90
28725;DHT22;43472;48.980;9.646;2022-07-24T03:57:41;18.20;99.90
28725;DHT22;43472;48.980;9.646;2022-07-24T04:02:43;18.20;99.90
28725;DHT22;43472;48.980;9.646;2022-07-24T04:07:45;18.10;99.90
28725;DHT22;43472;48.980;9.646;2022-07-24T04:17:49;17.70;99.90
28725;DHT22;43472;48.980;9.646;2022-07-24T04:27:53;18.10;99.90
28725;DHT22;43472;48.980;9.646;2022-07-24T04:32:55;18.00;99.90
28725;DHT22;43472;48.980;9.646;2022-07-24T04:37:56;18.00;99.90
28725;DHT22;43472;48.980;9.646;2022-07-24T04:48:00;17.90;99.90
28725;DHT22;43472;48.980;9.646;2022-07-24T04:53:02;18.10;99.90
28725;DHT22;43472;48.980;9.646;2022-07-24T04:58:04;18.00;99.90
28725;DHT22;43472;48.980;9.646;2022-07-24T05:03:06;18.00;99.90
28725;DHT22;43472;48.980;9.646;2022-07-24T05:08:08;18.00;99.90
28725;DHT22;43472;48.980;9.646;2022-07-24T05:13:10;18.00;99.90
28725;DHT22;43472;48.980;9.646;2022-07-24T05:18:11;18.30;99.90
28725;DHT22;43472;48.980;9.646;2022-07-24T05:23:13;18.10;99.90
28725;DHT22;43472;48.980;9.646;2022-07-24T05:28:15;18.40;99.90
28725;DHT22;43472;48.980;9.646;2022-07-24T05:33:17;18.10;99.90
28725;DHT22;43472;48.980;9.646;2022-07-24T05:38:20;18.20;99.90
28725;DHT22;43472;48.980;9.646;2022-07-24T05:43:21;18.10;99.90
28725;DHT22;43472;48.980;9.646;2022-07-24T05:48:23;18.20;99.90
28725;DHT22;43472;48.980;9.646;2022-07-24T05:53:25;18.60;99.90
28725;DHT22;43472;48.980;9.646;2022-07-24T05:58:27;18.50;99.90
28725;DHT22;43472;48.980;9.646;2022-07-24T06:03:28;18.80;99.90
28725;DHT22;43472;48.980;9.646;2022-07-24T06:08:30;19.00;99.90
28725;DHT22;43472;48.980;9.646;2022-07-24T06:13:32;19.50;99.90
28725;DHT22;43472;48.980;9.646;2022-07-24T06:23:37;19.80;99.90
28725;DHT22;43472;48.980;9.646;2022-07-24T06:28:39;20.10;99.90
28725;DHT22;43472;48.980;9.646;2022-07-24T06:33:40;20.30;99.90
28725;DHT22;43472;48.980;9.646;2022-07-24T06:38:42;20.50;99.90
28725;DHT22;43472;48.980;9.646;2022-07-24T06:43:44;20.70;99.90
28725;DHT22;43472;48.980;9.646;2022-07-24T06:53:48;21.10;99.90
28725;DHT22;43472;48.980;9.646;2022-07-24T07:03:53;22.10;99.90
28725;DHT22;43472;48.980;9.646;2022-07-24T07:08:55;22.00;99.90
28725;DHT22;43472;48.980;9.646;2022-07-24T07:13:56;22.30;99.90
28725;DHT22;43472;48.980;9.646;2022-07-24T07:18:58;22.50;99.90
28725;DHT22;43472;48.980;9.646;2022-07-24T07:29:02;23.00;99.90
28725;DHT22;43472;48.980;9.646;2022-07-24T07:34:04;23.20;99.90
28725;DHT22;43472;48.980;9.646;2022-07-24T07:39:06;23.00;99.90
28725;DHT22;43472;48.980;9.646;2022-07-24T07:44:09;23.30;99.90
28725;DHT22;43472;48.980;9.646;2022-07-24T07:49:10;25.20;99.90
28725;DHT22;43472;48.980;9.646;2022-07-24T07:54:13;23.50;99.90
28725;DHT22;43472;48.980;9.646;2022-07-24T07:59:15;23.70;99.90
28725;DHT22;43472;48.980;9.646;2022-07-24T08:04:17;23.80;99.90
28725;DHT22;43472;48.980;9.646;2022-07-24T08:09:19;24.10;99.90
28725;DHT22;43472;48.980;9.646;2022-07-24T08:14:22;24.20;99.90
28725;DHT22;43472;48.980;9.646;2022-07-24T08:19:24;24.10;99.90
28725;DHT22;43472;48.980;9.646;2022-07-24T08:24:25;24.10;99.90
28725;DHT22;43472;48.980;9.646;2022-07-24T08:29:28;24.50;99.90
28725;DHT22;43472;48.980;9.646;2022-07-24T08:34:32;24.00;99.90
28725;DHT22;43472;48.980;9.646;2022-07-24T08:39:37;24.00;99.90
28725;DHT22;43472;48.980;9.646;2022-07-24T08:44:39;24.40;99.90
28725;DHT22;43472;48.980;9.646;2022-07-24T08:49:44;24.90;99.90
28725;DHT22;43472;48.980;9.646;2022-07-24T08:54:48;24.50;99.90
28725;DHT22;43472;48.980;9.646;2022-07-24T08:59:50;25.00;99.90
28725;DHT22;43472;48.980;9.646;2022-07-24T09:04:58;25.10;99.90
28725;DHT22;43472;48.980;9.646;2022-07-24T09:15:24;24.80;99.90
28725;DHT22;43472;48.980;9.646;2022-07-24T09:20:28;24.90;99.90
28725;DHT22;43472;48.980;9.646;2022-07-24T09:25:33;24.70;99.90
28725;DHT22;43472;48.980;9.646;2022-07-24T09:30:37;24.80;99.90
28725;DHT22;43472;48.980;9.646;2022-07-24T09:35:52;24.40;99.90
28725;DHT22;43472;48.980;9.646;2022-07-24T09:40:59;25.00;99.90
28725;DHT22;43472;48.980;9.646;2022-07-24T09:51:08;25.20;99.90
28725;DHT22;43472;48.980;9.646;2022-07-24T09:56:16;25.10;99.90
28725;DHT22;43472;48.980;9.646;2022-07-24T10:01:24;25.30;99.90
28725;DHT22;43472;48.980;9.646;2022-07-24T10:06:27;26.20;99.90
28725;DHT22;43472;48.980;9.646;2022-07-24T10:11:34;26.00;99.90
28725;DHT22;43472;48.980;9.646;2022-07-24T10:16:41;25.80;99.90
28725;DHT22;43472;48.980;9.646;2022-07-24T10:22:09;25.80;99.90
28725;DHT22;43472;48.980;9.646;2022-07-24T10:27:36;26.00;99.90
28725;DHT22;43472;48.980;9.646;2022-07-24T10:32:39;25.40;99.90
28725;DHT22;43472;48.980;9.646;2022-07-24T10:43:08;25.70;99.90
28725;DHT22;43472;48.980;9.646;2022-07-24T10:53:22;26.80;99.90
28725;DHT22;43472;48.980;9.646;2022-07-24T10:58:24;26.40;99.90
28725;DHT22;43472;48.980;9.646;2022-07-24T11:03:29;26.40;99.90
28725;DHT22;43472;48.980;9.646;2022-07-24T11:13:54;26.50;99.90
28725;DHT22;43472;48.980;9.646;2022-07-24T11:29:21;26.60;99.90
28725;DHT22;43472;48.980;9.646;2022-07-24T11:34:26;26.70;99.90
28725;DHT22;43472;48.980;9.646;2022-07-24T11:39:33;26.80;99.90
28725;DHT22;43472;48.980;9.646;2022-07-24T11:44:36;26.40;99.90
28725;DHT22;43472;48.980;9.646;2022-07-24T11:49:49;24.60;99.90
28725;DHT22;43472;48.980;9.646;2022-07-24T11:54:56;24.30;99.90
28725;DHT22;43472;48.980;9.646;2022-07-24T11:59:59;24.90;99.90
28725;DHT22;43472;48.980;9.646;2022-07-24T12:05:01;25.10;99.90
28725;DHT22;43472;48.980;9.646;2022-07-24T12:10:05;24.80;99.90
28725;DHT22;43472;48.980;9.646;2022-07-24T12:15:12;25.90;99.90
28725;DHT22;43472;48.980;9.646;2022-07-24T12:20:23;27.00;99.60
28725;DHT22;43472;48.980;9.646;2022-07-24T12:25:26;25.70;99.90
28725;DHT22;43472;48.980;9.646;2022-07-24T12:30:30;26.70;99.90
28725;DHT22;43472;48.980;9.646;2022-07-24T12:35:40;28.60;98.10
28725;DHT22;43472;48.980;9.646;2022-07-24T12:46:10;29.10;96.40
28725;DHT22;43472;48.980;9.646;2022-07-24T12:51:12;29.20;95.90
28725;DHT22;43472;48.980;9.646;2022-07-24T12:56:16;26.40;99.90
28725;DHT22;43472;48.980;9.646;2022-07-24T13:01:19;27.00;98.60
28725;DHT22;43472;48.980;9.646;2022-07-24T13:06:58;26.90;98.90
28725;DHT22;43472;48.980;9.646;2022-07-24T13:12:00;27.80;97.10
28725;DHT22;43472;48.980;9.646;2022-07-24T13:17:05;27.00;98.70
28725;DHT22;43472;48.980;9.646;2022-07-24T13:22:08;26.10;99.90
28725;DHT22;43472;48.980;9.646;2022-07-24T13:27:11;26.20;99.50
28725;DHT22;43472;48.980;9.646;2022-07-24T13:32:18;27.60;97.80
28725;DHT22;43472;48.980;9.646;2022-07-24T13:37:24;27.60;98.20
28725;DHT22;43472;48.980;9.646;2022-07-24T13:42:26;30.00;93.70
28725;DHT22;43472;48.980;9.646;2022-07-24T13:47:28;28.60;95.90
28725;DHT22;43472;48.980;9.646;2022-07-24T13:52:31;28.50;95.90
28725;DHT22;43472;48.980;9.646;2022-07-24T13:57:33;26.60;98.50
28725;DHT22;43472;48.980;9.646;2022-07-24T14:02:35;27.70;96.90
28725;DHT22;43472;48.980;9.646;2022-07-24T14:07:37;27.50;97.40
28725;DHT22;43472;48.980;9.646;2022-07-24T14:12:39;28.80;95.40
28725;DHT22;43472;48.980;9.646;2022-07-24T14:17:42;29.90;93.00
28725;DHT22;43472;48.980;9.646;2022-07-24T14:22:44;30.00;94.00
28725;DHT22;43472;48.980;9.646;2022-07-24T14:27:46;28.30;95.90
28725;DHT22;43472;48.980;9.646;2022-07-24T14:32:48;27.50;96.30
28725;DHT22;43472;48.980;9.646;2022-07-24T14:37:50;28.80;94.80
28725;DHT22;43472;48.980;9.646;2022-07-24T14:42:52;28.00;95.00
28725;DHT22;43472;48.980;9.646;2022-07-24T14:47:54;28.20;96.00
28725;DHT22;43472;48.980;9.646;2022-07-24T14:52:56;28.20;95.00
28725;DHT22;43472;48.980;9.646;2022-07-24T14:57:57;27.70;96.20
28725;DHT22;43472;48.980;9.646;2022-07-24T15:02:59;27.60;96.10
28725;DHT22;43472;48.980;9.646;2022-07-24T15:08:01;28.20;94.90
28725;DHT22;43472;48.980;9.646;2022-07-24T15:13:03;28.70;94.40
28725;DHT22;43472;48.980;9.646;2022-07-24T15:18:05;26.70;97.30
28725;DHT22;43472;48.980;9.646;2022-07-24T15:23:06;26.80;96.50
28725;DHT22;43472;48.980;9.646;2022-07-24T15:28:08;28.20;94.60
28725;DHT22;43472;48.980;9.646;2022-07-24T15:33:10;29.00;93.30
28725;DHT22;43472;48.980;9.646;2022-07-24T15:38:14;27.50;95.20
28725;DHT22;43472;48.980;9.646;2022-07-24T15:43:18;27.80;93.90
28725;DHT22;43472;48.980;9.646;2022-07-24T15:48:20;27.10;95.80
28725;DHT22;43472;48.980;9.646;2022-07-24T15:53:22;27.70;95.00
28725;DHT22;43472;48.980;9.646;2022-07-24T15:58:23;26.60;96.70
28725;DHT22;43472;48.980;9.646;2022-07-24T16:03:25;26.50;96.80
28725;DHT22;43472;48.980;9.646;2022-07-24T16:08:27;25.90;97.80
28725;DHT22;43472;48.980;9.646;2022-07-24T16:13:29;25.50;98.40
28725;DHT22;43472;48.980;9.646;2022-07-24T16:18:31;25.20;99.00
28725;DHT22;43472;48.980;9.646;2022-07-24T16:23:36;25.60;98.50
28725;DHT22;43472;48.980;9.646;2022-07-24T16:28:37;26.40;97.10
28725;DHT22;43472;48.980;9.646;2022-07-24T16:33:39;25.90;97.70
28725;DHT22;43472;48.980;9.646;2022-07-24T16:38:43;25.50;98.30
28725;DHT22;43472;48.980;9.646;2022-07-24T16:43:46;23.60;99.20
28725;DHT22;43472;48.980;9.646;2022-07-24T16:48:48;25.10;99.30
28725;DHT22;43472;48.980;9.646;2022-07-24T16:53:50;26.40;97.20
28725;DHT22;43472;48.980;9.646;2022-07-24T16:58:52;26.20;96.90
28725;DHT22;43472;48.980;9.646;2022-07-24T17:03:54;25.10;99.10
28725;DHT22;43472;48.980;9.646;2022-07-24T17:08:56;24.90;99.60
28725;DHT22;43472;48.980;9.646;2022-07-24T17:13:59;24.70;99.90
28725;DHT22;43472;48.980;9.646;2022-07-24T17:19:00;24.50;99.90
28725;DHT22;43472;48.980;9.646;2022-07-24T17:24:03;24.60;99.90
28725;DHT22;43472;48.980;9.646;2022-07-24T17:29:05;24.70;99.70
28725;DHT22;43472;48.980;9.646;2022-07-24T17:34:07;24.40;99.90
28725;DHT22;43472;48.980;9.646;2022-07-24T17:39:09;24.50;99.90
28725;DHT22;43472;48.980;9.646;2022-07-24T17:44:11;24.50;99.90
28725;DHT22;43472;48.980;9.646;2022-07-24T17:49:13;24.40;99.90
28725;DHT22;43472;48.980;9.646;2022-07-24T17:54:21;24.40;99.90
28725;DHT22;43472;48.980;9.646;2022-07-24T17:59:23;24.30;99.90
28725;DHT22;43472;48.980;9.646;2022-07-24T18:04:24;24.10;99.90
28725;DHT22;43472;48.980;9.646;2022-07-24T18:09:27;24.10;99.90
28725;DHT22;43472;48.980;9.646;2022-07-24T18:14:28;24.10;99.90
28725;DHT22;43472;48.980;9.646;2022-07-24T18:19:31;24.10;99.90
28725;DHT22;43472;48.980;9.646;2022-07-24T18:24:33;23.90;99.90
28725;DHT22;43472;48.980;9.646;2022-07-24T18:29:34;24.10;99.90
28725;DHT22;43472;48.980;9.646;2022-07-24T18:34:36;23.80;99.90
28725;DHT22;43472;48.980;9.646;2022-07-24T18:39:38;23.90;99.90
28725;DHT22;43472;48.980;9.646;2022-07-24T18:44:40;23.80;99.90
28725;DHT22;43472;48.980;9.646;2022-07-24T18:49:41;23.90;99.90
28725;DHT22;43472;48.980;9.646;2022-07-24T18:54:43;24.00;99.90
28725;DHT22;43472;48.980;9.646;2022-07-24T18:59:45;24.00;99.90
28725;DHT22;43472;48.980;9.646;2022-07-24T19:04:47;24.70;99.90
28725;DHT22;43472;48.980;9.646;2022-07-24T19:09:48;24.70;99.90
28725;DHT22;43472;48.980;9.646;2022-07-24T19:14:50;24.90;99.90
28725;DHT22;43472;48.980;9.646;2022-07-24T19:19:52;24.40;99.90
28725;DHT22;43472;48.980;9.646;2022-07-24T19:24:54;24.80;99.90
28725;DHT22;43472;48.980;9.646;2022-07-24T19:30:04;24.90;99.90
28725;DHT22;43472;48.980;9.646;2022-07-24T19:35:07;24.80;99.90
28725;DHT22;43472;48.980;9.646;2022-07-24T19:40:09;24.80;99.90
28725;DHT22;43472;48.980;9.646;2022-07-24T19:45:11;24.70;99.90
28725;DHT22;43472;48.980;9.646;2022-07-24T19:50:12;24.50;99.90
28725;DHT22;43472;48.980;9.646;2022-07-24T19:55:16;24.50;99.90
28725;DHT22;43472;48.980;9.646;2022-07-24T20:00:18;24.20;99.90
28725;DHT22;43472;48.980;9.646;2022-07-24T20:05:20;24.10;99.90
28725;DHT22;43472;48.980;9.646;2022-07-24T20:10:22;24.10;99.90
28725;DHT22;43472;48.980;9.646;2022-07-24T20:15:23;23.90;99.90
28725;DHT22;43472;48.980;9.646;2022-07-24T20:20:25;23.80;99.90
28725;DHT22;43472;48.980;9.646;2022-07-24T20:25:27;23.50;99.90
28725;DHT22;43472;48.980;9.646;2022-07-24T20:30:29;23.90;99.90
28725;DHT22;43472;48.980;9.646;2022-07-24T20:35:31;23.80;99.90
28725;DHT22;43472;48.980;9.646;2022-07-24T20:40:33;23.50;99.90
28725;DHT22;43472;48.980;9.646;2022-07-24T20:45:35;23.00;99.90
28725;DHT22;43472;48.980;9.646;2022-07-24T20:50:37;22.90;99.90
28725;DHT22;43472;48.980;9.646;2022-07-24T20:55:39;23.20;99.90
28725;DHT22;43472;48.980;9.646;2022-07-24T21:00:42;23.40;99.90
28725;DHT22;43472;48.980;9.646;2022-07-24T21:05:44;23.20;99.90
28725;DHT22;43472;48.980;9.646;2022-07-24T21:10:45;22.90;99.90
28725;DHT22;43472;48.980;9.646;2022-07-24T21:15:47;22.50;99.90
28725;DHT22;43472;48.980;9.646;2022-07-24T21:20:49;22.80;99.90
28725;DHT22;43472;48.980;9.646;2022-07-24T21:25:52;23.10;99.90
28725;DHT22;43472;48.980;9.646;2022-07-24T21:30:54;22.60;99.90
28725;DHT22;43472;48.980;9.646;2022-07-24T21:35:55;22.50;99.90
28725;DHT22;43472;48.980;9.646;2022-07-24T21:40:57;22.30;99.90
28725;DHT22;43472;48.980;9.646;2022-07-24T21:45:59;21.90;99.90
28725;DHT22;43472;48.980;9.646;2022-07-24T21:51:06;21.80;99.90
28725;DHT22;43472;48.980;9.646;2022-07-24T21:56:08;22.10;99.90
28725;DHT22;43472;48.980;9.646;2022-07-24T22:01:11;22.00;99.90
28725;DHT22;43472;48.980;9.646;2022-07-24T22:06:13;21.60;99.90
28725;DHT22;43472;48.980;9.646;2022-07-24T22:11:15;21.40;99.90
28725;DHT22;43472;48.980;9.646;2022-07-24T22:16:17;21.40;99.90
28725;DHT22;43472;48.980;9.646;2022-07-24T22:21:19;21.80;99.90
28725;DHT22;43472;48.980;9.646;2022-07-24T22:26:21;21.70;99.90
28725;DHT22;43472;48.980;9.646;2022-07-24T22:36:27;21.00;99.90
28725;DHT22;43472;48.980;9.646;2022-07-24T22:41:32;21.30;99.90
28725;DHT22;43472;48.980;9.646;2022-07-24T22:46:34;20.10;99.90
28725;DHT22;43472;48.980;9.646;2022-07-24T22:51:37;21.20;99.90
28725;DHT22;43472;48.980;9.646;2022-07-24T22:56:43;21.10;99.90
28725;DHT22;43472;48.980;9.646;2022-07-24T23:01:45;20.80;99.90
28725;DHT22;43472;48.980;9.646;2022-07-24T23:06:47;20.80;99.90
28725;DHT22;43472;48.980;9.646;2022-07-24T23:11:49;21.00;99.90
28725;DHT22;43472;48.980;9.646;2022-07-24T23:16:50;20.70;99.90
28725;DHT22;43472;48.980;9.646;2022-07-24T23:21:52;20.80;99.90
28725;DHT22;43472;48.980;9.646;2022-07-24T23:26:54;20.60;99.90
28725;DHT22;43472;48.980;9.646;2022-07-24T23:31:56;20.70;99.90
28725;DHT22;43472;48.980;9.646;2022-07-24T23:36:58;20.70;99.90
28725;DHT22;43472;48.980;9.646;2022-07-24T23:41:59;20.60;99.90
28725;DHT22;43472;48.980;9.646;2022-07-24T23:47:01;20.40;99.90
28725;DHT22;43472;48.980;9.646;2022-07-24T23:52:03;20.30;99.90
28725;DHT22;43472;48.980;9.646;2022-07-24T23:57:05;20.50;99.90
